sensor_id;sensor_type;location;lat;lon;timestamp;pressure;altitude;pressure_sealevel;temperature;humidity
82458;BME280;72081;48.870;11.074;2024-01-11T00:00:29;98191.22;;;-7.80;83.35
82458;BME280;72081;48.870;11.074;2024-01-11T00:02:54;98194.66;;;-7.80;83.89
82458;BME280;72081;48.870;11.074;2024-01-11T00:05:20;98191.03;;;-7.77;83.76
82458;BME280;72081;48.870;11.074;2024-01-11T00:07:46;98196.69;;;-7.85;83.62
82458;BME280;72081;48.870;11.074;2024-01-11T00:10:11;98189.25;;;-7.91;83.88
82458;BME280;72081;48.870;11.074;2024-01-11T00:12:37;98189.63;;;-7.97;83.50
82458;BME280;72081;48.870;11.074;2024-01-11T00:15:02;98193.06;;;-7.97;83.39
82458;BME280;72081;48.870;11.074;2024-01-11T00:17:27;98186.41;;;-8.01;83.50
82458;BME280;72081;48.870;11.074;2024-01-11T00:19:53;98187.13;;;-7.99;84.05
82458;BME280;72081;48.870;11.074;2024-01-11T00:22:18;98196.03;;;-7.88;83.01
82458;BME280;72081;48.870;11.074;2024-01-11T00:24:43;98197.53;;;-7.84;83.54
82458;BME280;72081;48.870;11.074;2024-01-11T00:27:09;98200.13;;;-7.84;83.33
82458;BME280;72081;48.870;11.074;2024-01-11T00:29:35;98189.94;;;-7.87;83.20
82458;BME280;72081;48.870;11.074;2024-01-11T00:32:01;98195.28;;;-7.90;82.72
82458;BME280;72081;48.870;11.074;2024-01-11T00:34:26;98204.16;;;-7.95;82.71
82458;BME280;72081;48.870;11.074;2024-01-11T00:36:51;98202.88;;;-8.02;82.61
82458;BME280;72081;48.870;11.074;2024-01-11T00:39:16;98203.69;;;-8.01;82.95
82458;BME280;72081;48.870;11.074;2024-01-11T00:41:42;98202.50;;;-7.96;83.40
82458;BME280;72081;48.870;11.074;2024-01-11T00:44:07;98194.28;;;-7.88;83.15
82458;BME280;72081;48.870;11.074;2024-01-11T00:46:33;98200.84;;;-7.82;84.08
82458;BME280;72081;48.870;11.074;2024-01-11T00:48:58;98188.28;;;-7.88;83.25
82458;BME280;72081;48.870;11.074;2024-01-11T00:51:23;98194.16;;;-8.01;83.57
82458;BME280;72081;48.870;11.074;2024-01-11T00:53:49;98193.53;;;-8.04;83.29
82458;BME280;72081;48.870;11.074;2024-01-11T00:56:18;98192.69;;;-8.05;83.88
82458;BME280;72081;48.870;11.074;2024-01-11T00:58:44;98191.28;;;-8.10;83.17
82458;BME280;72081;48.870;11.074;2024-01-11T01:01:09;98193.03;;;-8.11;83.88
82458;BME280;72081;48.870;11.074;2024-01-11T01:03:35;98193.97;;;-8.12;83.42
82458;BME280;72081;48.870;11.074;2024-01-11T01:06:00;98196.72;;;-8.15;83.72
82458;BME280;72081;48.870;11.074;2024-01-11T01:08:26;98203.84;;;-8.18;83.64
82458;BME280;72081;48.870;11.074;2024-01-11T01:10:52;98200.78;;;-8.25;83.68
82458;BME280;72081;48.870;11.074;2024-01-11T01:13:17;98210.22;;;-8.24;84.16
82458;BME280;72081;48.870;11.074;2024-01-11T01:15:42;98212.75;;;-8.08;83.44
82458;BME280;72081;48.870;11.074;2024-01-11T01:18:07;98207.94;;;-8.00;83.56
82458;BME280;72081;48.870;11.074;2024-01-11T01:20:33;98217.09;;;-7.95;83.58
82458;BME280;72081;48.870;11.074;2024-01-11T01:22:58;98216.19;;;-8.08;82.49
82458;BME280;72081;48.870;11.074;2024-01-11T01:25:23;98222.56;;;-8.29;83.79
82458;BME280;72081;48.870;11.074;2024-01-11T01:27:48;98219.00;;;-8.41;83.81
82458;BME280;72081;48.870;11.074;2024-01-11T01:30:14;98224.84;;;-8.53;83.45
82458;BME280;72081;48.870;11.074;2024-01-11T01:32:39;98231.19;;;-8.43;84.59
82458;BME280;72081;48.870;11.074;2024-01-11T01:35:04;98227.75;;;-8.29;85.13
82458;BME280;72081;48.870;11.074;2024-01-11T01:37:30;98230.94;;;-8.24;84.48
82458;BME280;72081;48.870;11.074;2024-01-11T01:39:55;98225.34;;;-8.32;84.24
82458;BME280;72081;48.870;11.074;2024-01-11T01:42:21;98218.81;;;-8.23;84.25
82458;BME280;72081;48.870;11.074;2024-01-11T01:44:46;98225.84;;;-8.11;83.66
82458;BME280;72081;48.870;11.074;2024-01-11T01:47:12;98224.03;;;-8.09;84.23
82458;BME280;72081;48.870;11.074;2024-01-11T01:49:37;98230.38;;;-8.15;83.75
82458;BME280;72081;48.870;11.074;2024-01-11T01:52:04;98230.09;;;-8.24;83.87
82458;BME280;72081;48.870;11.074;2024-01-11T01:55:56;98229.34;;;-8.27;83.84
82458;BME280;72081;48.870;11.074;2024-01-11T01:58:21;98219.66;;;-8.23;83.87
82458;BME280;72081;48.870;11.074;2024-01-11T02:00:49;98228.06;;;-8.19;83.40
82458;BME280;72081;48.870;11.074;2024-01-11T02:03:16;98222.91;;;-8.19;82.89
82458;BME280;72081;48.870;11.074;2024-01-11T02:05:42;98229.81;;;-8.20;83.66
82458;BME280;72081;48.870;11.074;2024-01-11T02:08:08;98225.00;;;-8.26;83.47
82458;BME280;72081;48.870;11.074;2024-01-11T02:10:34;98227.78;;;-8.15;84.20
82458;BME280;72081;48.870;11.074;2024-01-11T02:13:00;98229.09;;;-8.22;83.15
82458;BME280;72081;48.870;11.074;2024-01-11T02:15:26;98230.53;;;-8.32;83.62
82458;BME280;72081;48.870;11.074;2024-01-11T02:17:51;98239.34;;;-8.35;82.92
82458;BME280;72081;48.870;11.074;2024-01-11T02:20:16;98232.41;;;-8.34;83.77
82458;BME280;72081;48.870;11.074;2024-01-11T02:22:47;98236.09;;;-8.24;82.77
82458;BME280;72081;48.870;11.074;2024-01-11T02:25:12;98233.34;;;-8.21;82.14
82458;BME280;72081;48.870;11.074;2024-01-11T02:27:45;98242.78;;;-8.20;82.29
82458;BME280;72081;48.870;11.074;2024-01-11T02:30:10;98230.09;;;-8.24;82.36
82458;BME280;72081;48.870;11.074;2024-01-11T02:32:36;98239.06;;;-8.16;82.82
82458;BME280;72081;48.870;11.074;2024-01-11T02:35:01;98239.06;;;-8.16;82.67
82458;BME280;72081;48.870;11.074;2024-01-11T02:37:27;98242.50;;;-8.15;82.16
82458;BME280;72081;48.870;11.074;2024-01-11T02:39:53;98237.13;;;-8.27;82.13
82458;BME280;72081;48.870;11.074;2024-01-11T02:42:18;98231.75;;;-8.23;82.59
82458;BME280;72081;48.870;11.074;2024-01-11T02:44:43;98232.69;;;-8.24;82.46
82458;BME280;72081;48.870;11.074;2024-01-11T02:47:09;98235.34;;;-8.40;82.57
82458;BME280;72081;48.870;11.074;2024-01-11T02:49:34;98229.75;;;-8.48;82.56
82458;BME280;72081;48.870;11.074;2024-01-11T02:51:59;98228.19;;;-8.51;82.32
82458;BME280;72081;48.870;11.074;2024-01-11T02:54:24;98218.34;;;-8.44;82.60
82458;BME280;72081;48.870;11.074;2024-01-11T02:56:50;98218.66;;;-8.50;82.55
82458;BME280;72081;48.870;11.074;2024-01-11T02:59:15;98222.63;;;-8.59;82.18
82458;BME280;72081;48.870;11.074;2024-01-11T03:01:40;98218.63;;;-8.65;82.53
82458;BME280;72081;48.870;11.074;2024-01-11T03:04:05;98219.78;;;-8.70;83.19
82458;BME280;72081;48.870;11.074;2024-01-11T03:06:31;98220.22;;;-8.62;83.49
82458;BME280;72081;48.870;11.074;2024-01-11T03:08:56;98219.38;;;-8.63;82.60
82458;BME280;72081;48.870;11.074;2024-01-11T03:11:21;98217.06;;;-8.67;83.51
82458;BME280;72081;48.870;11.074;2024-01-11T03:13:47;98216.28;;;-8.69;84.02
82458;BME280;72081;48.870;11.074;2024-01-11T03:16:12;98218.09;;;-8.55;84.34
82458;BME280;72081;48.870;11.074;2024-01-11T03:18:37;98215.00;;;-8.46;83.40
82458;BME280;72081;48.870;11.074;2024-01-11T03:21:03;98208.16;;;-8.47;83.03
82458;BME280;72081;48.870;11.074;2024-01-11T03:23:28;98203.13;;;-8.50;82.45
82458;BME280;72081;48.870;11.074;2024-01-11T03:25:53;98201.28;;;-8.48;83.04
82458;BME280;72081;48.870;11.074;2024-01-11T03:28:19;98197.72;;;-8.46;82.75
82458;BME280;72081;48.870;11.074;2024-01-11T03:30:44;98201.81;;;-8.58;82.55
82458;BME280;72081;48.870;11.074;2024-01-11T03:33:09;98210.03;;;-8.65;82.40
82458;BME280;72081;48.870;11.074;2024-01-11T03:35:34;98201.19;;;-8.77;82.87
82458;BME280;72081;48.870;11.074;2024-01-11T03:38:00;98198.63;;;-8.77;83.51
82458;BME280;72081;48.870;11.074;2024-01-11T03:40:25;98206.47;;;-8.78;83.01
82458;BME280;72081;48.870;11.074;2024-01-11T03:42:51;98198.03;;;-8.66;82.71
82458;BME280;72081;48.870;11.074;2024-01-11T03:45:19;98201.91;;;-8.59;82.70
82458;BME280;72081;48.870;11.074;2024-01-11T03:47:45;98195.00;;;-8.59;81.95
82458;BME280;72081;48.870;11.074;2024-01-11T03:50:10;98195.66;;;-8.71;82.35
82458;BME280;72081;48.870;11.074;2024-01-11T03:52:35;98201.25;;;-8.63;83.44
82458;BME280;72081;48.870;11.074;2024-01-11T03:55:00;98194.53;;;-8.51;82.91
82458;BME280;72081;48.870;11.074;2024-01-11T03:57:26;98186.56;;;-8.62;81.26
82458;BME280;72081;48.870;11.074;2024-01-11T03:59:51;98188.00;;;-8.72;82.62
82458;BME280;72081;48.870;11.074;2024-01-11T04:02:16;98182.25;;;-8.77;82.17
82458;BME280;72081;48.870;11.074;2024-01-11T04:04:41;98180.69;;;-8.80;82.60
82458;BME280;72081;48.870;11.074;2024-01-11T04:07:07;98173.03;;;-8.81;81.28
82458;BME280;72081;48.870;11.074;2024-01-11T04:09:32;98182.78;;;-8.86;82.19
82458;BME280;72081;48.870;11.074;2024-01-11T04:11:57;98178.88;;;-8.94;82.93
82458;BME280;72081;48.870;11.074;2024-01-11T04:14:22;98180.13;;;-8.85;83.50
82458;BME280;72081;48.870;11.074;2024-01-11T04:16:48;98178.94;;;-8.79;83.26
82458;BME280;72081;48.870;11.074;2024-01-11T04:19:13;98178.41;;;-8.70;83.32
82458;BME280;72081;48.870;11.074;2024-01-11T04:21:38;98169.31;;;-8.62;83.09
82458;BME280;72081;48.870;11.074;2024-01-11T04:24:04;98172.72;;;-8.61;82.07
82458;BME280;72081;48.870;11.074;2024-01-11T04:26:31;98189.19;;;-8.78;81.34
82458;BME280;72081;48.870;11.074;2024-01-11T04:28:56;98194.56;;;-8.97;82.50
82458;BME280;72081;48.870;11.074;2024-01-11T04:31:23;98199.72;;;-8.97;83.54
82458;BME280;72081;48.870;11.074;2024-01-11T04:33:48;98202.41;;;-8.98;82.75
82458;BME280;72081;48.870;11.074;2024-01-11T04:36:13;98200.94;;;-8.88;83.46
82458;BME280;72081;48.870;11.074;2024-01-11T04:38:39;98193.44;;;-8.77;82.43
82458;BME280;72081;48.870;11.074;2024-01-11T04:41:11;98195.28;;;-8.95;83.11
82458;BME280;72081;48.870;11.074;2024-01-11T04:44:47;98190.56;;;-9.02;83.13
82458;BME280;72081;48.870;11.074;2024-01-11T04:47:13;98192.41;;;-9.04;82.01
82458;BME280;72081;48.870;11.074;2024-01-11T04:49:38;98199.91;;;-9.00;83.11
82458;BME280;72081;48.870;11.074;2024-01-11T04:52:04;98196.41;;;-9.14;83.19
82458;BME280;72081;48.870;11.074;2024-01-11T04:54:30;98191.22;;;-8.99;84.29
82458;BME280;72081;48.870;11.074;2024-01-11T04:56:55;98190.88;;;-8.93;83.24
82458;BME280;72081;48.870;11.074;2024-01-11T04:59:20;98192.22;;;-9.01;82.35
82458;BME280;72081;48.870;11.074;2024-01-11T05:01:46;98189.22;;;-9.09;82.87
82458;BME280;72081;48.870;11.074;2024-01-11T05:04:11;98195.47;;;-9.13;83.24
82458;BME280;72081;48.870;11.074;2024-01-11T05:06:36;98213.56;;;-9.13;83.28
82458;BME280;72081;48.870;11.074;2024-01-11T05:09:02;98209.56;;;-9.19;83.62
82458;BME280;72081;48.870;11.074;2024-01-11T05:11:27;98210.25;;;-9.15;83.78
82458;BME280;72081;48.870;11.074;2024-01-11T05:13:52;98210.41;;;-9.19;83.28
82458;BME280;72081;48.870;11.074;2024-01-11T05:16:28;98215.56;;;-9.34;85.02
82458;BME280;72081;48.870;11.074;2024-01-11T05:18:57;98209.22;;;-9.44;84.05
82458;BME280;72081;48.870;11.074;2024-01-11T05:21:23;98204.06;;;-9.44;84.74
82458;BME280;72081;48.870;11.074;2024-01-11T05:23:48;98207.91;;;-9.36;86.06
82458;BME280;72081;48.870;11.074;2024-01-11T05:26:15;98209.06;;;-9.41;85.78
82458;BME280;72081;48.870;11.074;2024-01-11T05:28:41;98213.41;;;-9.42;84.83
82458;BME280;72081;48.870;11.074;2024-01-11T05:31:09;98224.56;;;-9.41;85.12
82458;BME280;72081;48.870;11.074;2024-01-11T05:33:35;98234.56;;;-9.35;85.97
82458;BME280;72081;48.870;11.074;2024-01-11T05:36:01;98235.81;;;-9.27;85.13
82458;BME280;72081;48.870;11.074;2024-01-11T05:38:26;98238.00;;;-9.19;84.62
82458;BME280;72081;48.870;11.074;2024-01-11T05:40:51;98242.84;;;-9.13;84.11
82458;BME280;72081;48.870;11.074;2024-01-11T05:43:16;98243.09;;;-9.18;83.25
82458;BME280;72081;48.870;11.074;2024-01-11T05:45:42;98239.59;;;-9.16;84.40
82458;BME280;72081;48.870;11.074;2024-01-11T05:48:07;98242.34;;;-9.20;85.00
82458;BME280;72081;48.870;11.074;2024-01-11T05:50:32;98246.34;;;-9.14;85.16
82458;BME280;72081;48.870;11.074;2024-01-11T05:52:58;98246.50;;;-9.17;84.81
82458;BME280;72081;48.870;11.074;2024-01-11T05:55:23;98243.09;;;-9.18;84.82
82458;BME280;72081;48.870;11.074;2024-01-11T05:57:48;98242.91;;;-9.14;83.70
82458;BME280;72081;48.870;11.074;2024-01-11T06:00:14;98241.84;;;-9.10;84.02
82458;BME280;72081;48.870;11.074;2024-01-11T06:02:39;98238.59;;;-9.14;83.71
82458;BME280;72081;48.870;11.074;2024-01-11T06:05:07;98242.44;;;-9.21;83.61
82458;BME280;72081;48.870;11.074;2024-01-11T06:07:33;98241.59;;;-9.22;83.28
82458;BME280;72081;48.870;11.074;2024-01-11T06:09:58;98239.66;;;-9.18;82.47
82458;BME280;72081;48.870;11.074;2024-01-11T06:12:23;98239.31;;;-9.28;83.02
82458;BME280;72081;48.870;11.074;2024-01-11T06:14:49;98237.16;;;-9.35;83.20
82458;BME280;72081;48.870;11.074;2024-01-11T06:17:14;98236.81;;;-9.29;83.83
82458;BME280;72081;48.870;11.074;2024-01-11T06:19:39;98243.91;;;-9.33;83.57
82458;BME280;72081;48.870;11.074;2024-01-11T06:22:04;98243.72;;;-9.30;83.72
82458;BME280;72081;48.870;11.074;2024-01-11T06:24:31;98241.22;;;-9.31;84.39
82458;BME280;72081;48.870;11.074;2024-01-11T06:26:56;98251.00;;;-9.36;83.83
82458;BME280;72081;48.870;11.074;2024-01-11T06:29:21;98248.06;;;-9.30;84.41
82458;BME280;72081;48.870;11.074;2024-01-11T06:31:47;98251.94;;;-9.22;84.16
82458;BME280;72081;48.870;11.074;2024-01-11T06:34:12;98254.19;;;-9.15;83.74
82458;BME280;72081;48.870;11.074;2024-01-11T06:36:37;98245.16;;;-9.08;82.82
82458;BME280;72081;48.870;11.074;2024-01-11T06:39:02;98245.34;;;-9.11;82.91
82458;BME280;72081;48.870;11.074;2024-01-11T06:41:29;98245.22;;;-9.26;82.92
82458;BME280;72081;48.870;11.074;2024-01-11T06:43:54;98240.84;;;-9.24;82.08
82458;BME280;72081;48.870;11.074;2024-01-11T06:46:20;98242.91;;;-9.14;82.84
82458;BME280;72081;48.870;11.074;2024-01-11T06:48:47;98246.31;;;-9.30;82.15
82458;BME280;72081;48.870;11.074;2024-01-11T06:51:15;98250.75;;;-9.32;83.03
82458;BME280;72081;48.870;11.074;2024-01-11T06:53:41;98256.44;;;-9.25;82.25
82458;BME280;72081;48.870;11.074;2024-01-11T06:56:14;98253.75;;;-9.24;82.48
82458;BME280;72081;48.870;11.074;2024-01-11T06:58:40;98251.00;;;-9.21;81.53
82458;BME280;72081;48.870;11.074;2024-01-11T07:01:05;98260.09;;;-9.13;82.24
82458;BME280;72081;48.870;11.074;2024-01-11T07:03:30;98260.16;;;-9.31;81.02
82458;BME280;72081;48.870;11.074;2024-01-11T07:05:56;98270.78;;;-9.53;81.92
82458;BME280;72081;48.870;11.074;2024-01-11T07:08:21;98272.75;;;-9.40;82.96
82458;BME280;72081;48.870;11.074;2024-01-11T07:10:46;98270.75;;;-9.35;82.79
82458;BME280;72081;48.870;11.074;2024-01-11T07:13:12;98275.91;;;-9.35;82.27
82458;BME280;72081;48.870;11.074;2024-01-11T07:15:40;98275.50;;;-9.28;83.13
82458;BME280;72081;48.870;11.074;2024-01-11T07:18:05;98269.09;;;-9.21;82.81
82458;BME280;72081;48.870;11.074;2024-01-11T07:20:30;98272.28;;;-9.15;82.41
82458;BME280;72081;48.870;11.074;2024-01-11T07:22:55;98278.34;;;-9.16;82.04
82458;BME280;72081;48.870;11.074;2024-01-11T07:25:21;98285.75;;;-9.26;82.61
82458;BME280;72081;48.870;11.074;2024-01-11T07:27:46;98293.81;;;-9.32;82.38
82458;BME280;72081;48.870;11.074;2024-01-11T07:30:11;98301.56;;;-9.32;83.41
82458;BME280;72081;48.870;11.074;2024-01-11T07:33:40;98309.25;;;-9.31;83.64
82458;BME280;72081;48.870;11.074;2024-01-11T07:36:05;98301.25;;;-9.26;84.56
82458;BME280;72081;48.870;11.074;2024-01-11T07:38:31;98306.13;;;-9.20;84.19
82458;BME280;72081;48.870;11.074;2024-01-11T07:40:56;98307.34;;;-9.27;84.25
82458;BME280;72081;48.870;11.074;2024-01-11T07:43:22;98309.84;;;-9.26;84.59
82458;BME280;72081;48.870;11.074;2024-01-11T07:45:47;98320.13;;;-9.24;85.36
82458;BME280;72081;48.870;11.074;2024-01-11T07:48:13;98313.88;;;-9.20;85.00
82458;BME280;72081;48.870;11.074;2024-01-11T07:50:38;98322.78;;;-9.10;84.41
82458;BME280;72081;48.870;11.074;2024-01-11T07:53:03;98329.63;;;-9.09;83.62
82458;BME280;72081;48.870;11.074;2024-01-11T07:55:29;98331.66;;;-8.98;83.64
82458;BME280;72081;48.870;11.074;2024-01-11T07:57:54;98339.91;;;-8.92;82.94
82458;BME280;72081;48.870;11.074;2024-01-11T08:00:19;98342.19;;;-8.85;82.90
82458;BME280;72081;48.870;11.074;2024-01-11T08:02:45;98334.78;;;-8.76;82.37
82458;BME280;72081;48.870;11.074;2024-01-11T08:05:10;98342.44;;;-8.74;83.15
82458;BME280;72081;48.870;11.074;2024-01-11T08:07:35;98340.22;;;-8.65;83.41
82458;BME280;72081;48.870;11.074;2024-01-11T08:10:01;98339.03;;;-8.59;82.81
82458;BME280;72081;48.870;11.074;2024-01-11T08:12:28;98344.13;;;-8.58;82.93
82458;BME280;72081;48.870;11.074;2024-01-11T08:14:55;98340.78;;;-8.60;83.11
82458;BME280;72081;48.870;11.074;2024-01-11T08:17:21;98334.19;;;-8.49;83.13
82458;BME280;72081;48.870;11.074;2024-01-11T08:19:46;98335.09;;;-8.35;83.56
82458;BME280;72081;48.870;11.074;2024-01-11T08:22:11;98333.59;;;-7.35;81.70
82458;BME280;72081;48.870;11.074;2024-01-11T08:24:37;98334.69;;;-6.53;78.42
82458;BME280;72081;48.870;11.074;2024-01-11T08:27:03;98320.25;;;-6.30;77.04
82458;BME280;72081;48.870;11.074;2024-01-11T08:29:29;98325.47;;;-6.45;76.42
82458;BME280;72081;48.870;11.074;2024-01-11T08:31:54;98329.03;;;-5.54;74.84
82458;BME280;72081;48.870;11.074;2024-01-11T08:34:20;98326.75;;;-5.58;73.84
82458;BME280;72081;48.870;11.074;2024-01-11T08:36:46;98319.03;;;-5.60;74.58
82458;BME280;72081;48.870;11.074;2024-01-11T08:39:11;98318.19;;;-5.73;74.10
82458;BME280;72081;48.870;11.074;2024-01-11T08:41:38;98321.00;;;-5.76;74.83
82458;BME280;72081;48.870;11.074;2024-01-11T08:44:04;98320.78;;;-5.73;76.09
82458;BME280;72081;48.870;11.074;2024-01-11T08:46:32;98313.44;;;-5.54;75.53
82458;BME280;72081;48.870;11.074;2024-01-11T08:49:01;98311.03;;;-5.44;74.57
82458;BME280;72081;48.870;11.074;2024-01-11T08:51:28;98326.84;;;-5.47;76.25
82458;BME280;72081;48.870;11.074;2024-01-11T08:53:54;98327.25;;;-5.66;76.94
82458;BME280;72081;48.870;11.074;2024-01-11T08:56:19;98329.81;;;-5.91;78.64
82458;BME280;72081;48.870;11.074;2024-01-11T08:58:44;98329.38;;;-5.85;78.04
82458;BME280;72081;48.870;11.074;2024-01-11T09:01:10;98335.63;;;-5.88;78.93
82458;BME280;72081;48.870;11.074;2024-01-11T09:03:35;98331.16;;;-5.86;79.53
82458;BME280;72081;48.870;11.074;2024-01-11T09:06:02;98336.97;;;-5.82;80.14
82458;BME280;72081;48.870;11.074;2024-01-11T09:08:27;98331.00;;;-5.57;80.46
82458;BME280;72081;48.870;11.074;2024-01-11T09:10:53;98338.06;;;-5.46;79.75
82458;BME280;72081;48.870;11.074;2024-01-11T09:13:18;98326.66;;;-5.31;78.33
82458;BME280;72081;48.870;11.074;2024-01-11T09:15:44;98330.25;;;-5.59;80.11
82458;BME280;72081;48.870;11.074;2024-01-11T09:18:09;98331.44;;;-5.51;79.86
82458;BME280;72081;48.870;11.074;2024-01-11T09:20:35;98325.19;;;-5.35;79.55
82458;BME280;72081;48.870;11.074;2024-01-11T09:23:00;98322.47;;;-5.46;80.29
82458;BME280;72081;48.870;11.074;2024-01-11T09:25:29;98320.50;;;-5.56;81.47
82458;BME280;72081;48.870;11.074;2024-01-11T09:27:54;98317.88;;;-5.68;81.95
82458;BME280;72081;48.870;11.074;2024-01-11T09:30:19;98326.31;;;-5.65;81.72
82458;BME280;72081;48.870;11.074;2024-01-11T09:32:44;98319.78;;;-5.58;81.34
82458;BME280;72081;48.870;11.074;2024-01-11T09:35:09;98319.75;;;-5.70;81.72
82458;BME280;72081;48.870;11.074;2024-01-11T09:37:35;98321.94;;;-5.64;82.83
82458;BME280;72081;48.870;11.074;2024-01-11T09:40:01;98312.91;;;-5.46;82.08
82458;BME280;72081;48.870;11.074;2024-01-11T09:42:26;98322.19;;;-5.29;80.71
82458;BME280;72081;48.870;11.074;2024-01-11T09:44:54;98310.72;;;-5.14;81.37
82458;BME280;72081;48.870;11.074;2024-01-11T09:47:21;98312.78;;;-5.06;80.61
82458;BME280;72081;48.870;11.074;2024-01-11T09:49:48;98314.06;;;-4.99;81.47
82458;BME280;72081;48.870;11.074;2024-01-11T09:52:16;98318.94;;;-4.95;80.38
82458;BME280;72081;48.870;11.074;2024-01-11T09:54:43;98296.63;;;-4.86;80.44
82458;BME280;72081;48.870;11.074;2024-01-11T09:57:09;98307.03;;;-4.73;80.84
82458;BME280;72081;48.870;11.074;2024-01-11T09:59:35;98299.59;;;-4.67;80.71
82458;BME280;72081;48.870;11.074;2024-01-11T10:02:01;98298.97;;;-4.57;79.87
82458;BME280;72081;48.870;11.074;2024-01-11T10:04:28;98295.91;;;-4.51;80.21
82458;BME280;72081;48.870;11.074;2024-01-11T10:06:54;98291.44;;;-4.49;80.55
82458;BME280;72081;48.870;11.074;2024-01-11T10:09:20;98291.84;;;-4.43;81.88
82458;BME280;72081;48.870;11.074;2024-01-11T10:11:46;98306.09;;;-4.36;79.75
82458;BME280;72081;48.870;11.074;2024-01-11T10:14:14;98297.72;;;-4.28;80.91
82458;BME280;72081;48.870;11.074;2024-01-11T10:16:43;98289.59;;;-4.23;80.35
82458;BME280;72081;48.870;11.074;2024-01-11T10:19:09;98288.91;;;-4.14;80.62
82458;BME280;72081;48.870;11.074;2024-01-11T10:22:32;98278.06;;;-3.97;79.54
82458;BME280;72081;48.870;11.074;2024-01-11T10:25:14;98278.50;;;-3.79;79.75
82458;BME280;72081;48.870;11.074;2024-01-11T10:27:41;98264.44;;;-3.65;79.02
82458;BME280;72081;48.870;11.074;2024-01-11T10:30:10;98262.69;;;-3.43;79.63
82458;BME280;72081;48.870;11.074;2024-01-11T10:32:38;98274.44;;;-3.26;78.89
82458;BME280;72081;48.870;11.074;2024-01-11T10:35:04;98287.50;;;-3.03;78.21
82458;BME280;72081;48.870;11.074;2024-01-11T10:37:31;98287.25;;;-3.00;77.26
82458;BME280;72081;48.870;11.074;2024-01-11T10:39:58;98279.28;;;-2.77;75.96
82458;BME280;72081;48.870;11.074;2024-01-11T10:42:25;98262.22;;;-2.69;75.00
82458;BME280;72081;48.870;11.074;2024-01-11T10:44:54;98259.47;;;-2.79;76.04
82458;BME280;72081;48.870;11.074;2024-01-11T10:47:24;98260.91;;;-2.86;77.63
82458;BME280;72081;48.870;11.074;2024-01-11T10:49:54;98260.75;;;-2.73;76.69
82458;BME280;72081;48.870;11.074;2024-01-11T10:52:24;98263.03;;;-2.91;75.26
82458;BME280;72081;48.870;11.074;2024-01-11T10:54:52;98265.75;;;-2.93;75.57
82458;BME280;72081;48.870;11.074;2024-01-11T10:57:18;98272.31;;;-2.87;75.08
82458;BME280;72081;48.870;11.074;2024-01-11T10:59:45;98277.75;;;-2.79;76.02
82458;BME280;72081;48.870;11.074;2024-01-11T11:02:12;98279.66;;;-2.81;75.14
82458;BME280;72081;48.870;11.074;2024-01-11T11:04:40;98273.97;;;-2.86;75.64
82458;BME280;72081;48.870;11.074;2024-01-11T11:07:07;98272.31;;;-2.87;75.85
82458;BME280;72081;48.870;11.074;2024-01-11T11:09:34;98251.75;;;-2.81;75.82
82458;BME280;72081;48.870;11.074;2024-01-11T11:12:00;98246.53;;;-2.69;74.69
82458;BME280;72081;48.870;11.074;2024-01-11T11:14:28;98240.19;;;-2.56;75.16
82458;BME280;72081;48.870;11.074;2024-01-11T11:16:53;98233.63;;;-2.39;73.74
82458;BME280;72081;48.870;11.074;2024-01-11T11:19:20;98230.59;;;-2.23;73.00
82458;BME280;72081;48.870;11.074;2024-01-11T11:21:48;98234.56;;;-2.08;72.09
82458;BME280;72081;48.870;11.074;2024-01-11T11:24:14;98236.50;;;-2.10;71.87
82458;BME280;72081;48.870;11.074;2024-01-11T11:26:42;98235.97;;;-2.04;72.58
82458;BME280;72081;48.870;11.074;2024-01-11T11:29:08;98249.59;;;-1.89;71.79
82458;BME280;72081;48.870;11.074;2024-01-11T11:34:04;98245.63;;;-1.63;71.23
82458;BME280;72081;48.870;11.074;2024-01-11T11:36:33;98224.94;;;-1.45;70.12
82458;BME280;72081;48.870;11.074;2024-01-11T11:38:59;98236.59;;;-1.28;69.22
82458;BME280;72081;48.870;11.074;2024-01-11T11:41:26;98240.00;;;-1.07;68.95
82458;BME280;72081;48.870;11.074;2024-01-11T11:44:00;98235.81;;;-0.79;67.25
82458;BME280;72081;48.870;11.074;2024-01-11T11:46:26;98223.47;;;-0.57;66.03
82458;BME280;72081;48.870;11.074;2024-01-11T11:48:52;98222.22;;;-0.44;65.75
82458;BME280;72081;48.870;11.074;2024-01-11T11:51:18;98219.22;;;-0.20;65.76
82458;BME280;72081;48.870;11.074;2024-01-11T11:53:46;98206.91;;;0.10;64.91
82458;BME280;72081;48.870;11.074;2024-01-11T11:56:11;98196.19;;;0.59;63.44
82458;BME280;72081;48.870;11.074;2024-01-11T11:58:43;98201.38;;;0.79;61.96
82458;BME280;72081;48.870;11.074;2024-01-11T12:01:09;98210.91;;;1.17;61.30
82458;BME280;72081;48.870;11.074;2024-01-11T12:03:40;98212.13;;;1.40;60.45
82458;BME280;72081;48.870;11.074;2024-01-11T12:06:07;98214.31;;;1.45;59.65
82458;BME280;72081;48.870;11.074;2024-01-11T12:08:34;98215.81;;;1.47;60.15
82458;BME280;72081;48.870;11.074;2024-01-11T12:11:00;98208.25;;;1.62;60.14
82458;BME280;72081;48.870;11.074;2024-01-11T12:13:26;98207.78;;;1.49;59.24
82458;BME280;72081;48.870;11.074;2024-01-11T12:15:51;98198.63;;;1.08;61.31
82458;BME280;72081;48.870;11.074;2024-01-11T12:18:17;98196.38;;;1.13;61.36
82458;BME280;72081;48.870;11.074;2024-01-11T12:20:42;98186.59;;;1.05;61.47
82458;BME280;72081;48.870;11.074;2024-01-11T12:23:08;98179.38;;;1.07;62.68
82458;BME280;72081;48.870;11.074;2024-01-11T12:25:34;98188.19;;;0.88;62.09
82458;BME280;72081;48.870;11.074;2024-01-11T12:28:00;98174.94;;;0.43;64.19
82458;BME280;72081;48.870;11.074;2024-01-11T12:30:26;98185.06;;;0.19;64.91
82458;BME280;72081;48.870;11.074;2024-01-11T12:32:53;98179.84;;;0.09;66.38
82458;BME280;72081;48.870;11.074;2024-01-11T12:35:19;98183.44;;;0.08;65.49
82458;BME280;72081;48.870;11.074;2024-01-11T12:38:01;98187.06;;;-0.12;65.73
82458;BME280;72081;48.870;11.074;2024-01-11T12:40:32;98184.72;;;-0.35;67.98
82458;BME280;72081;48.870;11.074;2024-01-11T12:42:57;98195.03;;;-0.43;67.97
82458;BME280;72081;48.870;11.074;2024-01-11T12:45:25;98198.34;;;-0.60;67.66
82458;BME280;72081;48.870;11.074;2024-01-11T12:47:55;98191.03;;;-0.66;68.54
82458;BME280;72081;48.870;11.074;2024-01-11T12:50:22;98197.59;;;-0.81;69.01